sensor_id;sensor_type;location;lat;lon;timestamp;P1;durP1;ratioP1;P2;durP2;ratioP2
58661;SDS011;44432;49.786;22.760;2023-02-28T00:00:37;43.50;;;22.30;;
58661;SDS011;44432;49.786;22.760;2023-02-28T00:03:17;43.00;;;22.40;;
58661;SDS011;44432;49.786;22.760;2023-02-28T00:05:48;44.10;;;22.90;;
58661;SDS011;44432;49.786;22.760;2023-02-28T00:08:19;49.60;;;25.70;;
58661;SDS011;44432;49.786;22.760;2023-02-28T00:10:49;47.40;;;23.00;;
58661;SDS011;44432;49.786;22.760;2023-02-28T00:13:20;42.30;;;22.50;;
58661;SDS011;44432;49.786;22.760;2023-02-28T00:15:59;43.40;;;23.90;;
58661;SDS011;44432;49.786;22.760;2023-02-28T00:18:31;43.10;;;21.60;;
58661;SDS011;44432;49.786;22.760;2023-02-28T00:21:02;41.30;;;23.70;;
58661;SDS011;44432;49.786;22.760;2023-02-28T00:23:33;42.40;;;22.50;;
58661;SDS011;44432;49.786;22.760;2023-02-28T00:26:05;50.90;;;25.00;;
58661;SDS011;44432;49.786;22.760;2023-02-28T00:28:36;56.30;;;27.70;;
58661;SDS011;44432;49.786;22.760;2023-02-28T00:31:06;58.40;;;25.10;;
58661;SDS011;44432;49.786;22.760;2023-02-28T00:33:37;54.00;;;27.30;;
58661;SDS011;44432;49.786;22.760;2023-02-28T00:36:08;40.80;;;22.20;;
58661;SDS011;44432;49.786;22.760;2023-02-28T00:38:40;43.20;;;22.50;;
58661;SDS011;44432;49.786;22.760;2023-02-28T00:41:11;44.30;;;21.00;;
58661;SDS011;44432;49.786;22.760;2023-02-28T00:43:42;40.30;;;21.80;;
58661;SDS011;44432;49.786;22.760;2023-02-28T00:46:12;44.50;;;22.30;;
58661;SDS011;44432;49.786;22.760;2023-02-28T00:48:43;43.90;;;22.40;;
58661;SDS011;44432;49.786;22.760;2023-02-28T00:51:14;44.20;;;22.30;;
58661;SDS011;44432;49.786;22.760;2023-02-28T00:53:44;42.80;;;22.00;;
58661;SDS011;44432;49.786;22.760;2023-02-28T00:56:15;41.40;;;21.40;;
58661;SDS011;44432;49.786;22.760;2023-02-28T00:58:46;41.60;;;21.50;;
58661;SDS011;44432;49.786;22.760;2023-02-28T01:01:16;43.20;;;21.80;;
58661;SDS011;44432;49.786;22.760;2023-02-28T01:03:47;42.40;;;20.40;;
58661;SDS011;44432;49.786;22.760;2023-02-28T01:06:17;39.50;;;20.80;;
58661;SDS011;44432;49.786;22.760;2023-02-28T01:08:48;41.70;;;23.40;;
58661;SDS011;44432;49.786;22.760;2023-02-28T01:11:19;44.40;;;23.40;;
58661;SDS011;44432;49.786;22.760;2023-02-28T01:13:49;43.60;;;23.10;;
58661;SDS011;44432;49.786;22.760;2023-02-28T01:16:20;46.30;;;23.20;;
58661;SDS011;44432;49.786;22.760;2023-02-28T01:18:51;41.80;;;23.70;;
58661;SDS011;44432;49.786;22.760;2023-02-28T01:21:22;39.00;;;19.90;;
58661;SDS011;44432;49.786;22.760;2023-02-28T01:23:55;39.60;;;21.10;;
58661;SDS011;44432;49.786;22.760;2023-02-28T01:26:27;43.40;;;21.40;;
58661;SDS011;44432;49.786;22.760;2023-02-28T01:28:58;42.70;;;21.00;;
58661;SDS011;44432;49.786;22.760;2023-02-28T01:31:28;45.90;;;22.20;;
58661;SDS011;44432;49.786;22.760;2023-02-28T01:33:59;43.20;;;22.00;;
58661;SDS011;44432;49.786;22.760;2023-02-28T01:36:30;40.50;;;21.60;;
58661;SDS011;44432;49.786;22.760;2023-02-28T01:39:00;40.00;;;20.20;;
58661;SDS011;44432;49.786;22.760;2023-02-28T01:41:32;39.70;;;20.70;;
58661;SDS011;44432;49.786;22.760;2023-02-28T01:44:04;44.20;;;20.90;;
58661;SDS011;44432;49.786;22.760;2023-02-28T01:46:55;36.30;;;18.90;;
58661;SDS011;44432;49.786;22.760;2023-02-28T01:49:26;37.60;;;18.90;;
58661;SDS011;44432;49.786;22.760;2023-02-28T01:51:57;39.70;;;21.50;;
58661;SDS011;44432;49.786;22.760;2023-02-28T01:54:29;42.20;;;21.50;;
58661;SDS011;44432;49.786;22.760;2023-02-28T01:57:03;41.10;;;21.50;;
58661;SDS011;44432;49.786;22.760;2023-02-28T01:59:36;41.10;;;23.10;;
58661;SDS011;44432;49.786;22.760;2023-02-28T02:02:13;45.30;;;23.90;;
58661;SDS011;44432;49.786;22.760;2023-02-28T02:04:49;40.80;;;21.40;;
58661;SDS011;44432;49.786;22.760;2023-02-28T02:07:23;44.00;;;22.90;;
58661;SDS011;44432;49.786;22.760;2023-02-28T02:10:01;42.90;;;24.10;;
58661;SDS011;44432;49.786;22.760;2023-02-28T02:12:39;44.30;;;24.30;;
58661;SDS011;44432;49.786;22.760;2023-02-28T02:15:20;38.60;;;21.50;;
58661;SDS011;44432;49.786;22.760;2023-02-28T02:17:57;39.50;;;20.50;;
58661;SDS011;44432;49.786;22.760;2023-02-28T02:20:51;38.70;;;20.10;;
58661;SDS011;44432;49.786;22.760;2023-02-28T02:23:57;40.20;;;20.00;;
58661;SDS011;44432;49.786;22.760;2023-02-28T02:35:23;42.20;;;20.40;;
58661;SDS011;44432;49.786;22.760;2023-02-28T02:37:59;40.00;;;21.40;;
58661;SDS011;44432;49.786;22.760;2023-02-28T02:40:37;37.90;;;20.10;;
58661;SDS011;44432;49.786;22.760;2023-02-28T02:43:13;35.50;;;19.10;;
58661;SDS011;44432;49.786;22.760;2023-02-28T02:45:49;36.70;;;19.90;;
58661;SDS011;44432;49.786;22.760;2023-02-28T02:48:25;38.20;;;19.90;;
58661;SDS011;44432;49.786;22.760;2023-02-28T02:50:59;39.00;;;19.10;;
58661;SDS011;44432;49.786;22.760;2023-02-28T02:53:35;35.90;;;18.60;;
58661;SDS011;44432;49.786;22.760;2023-02-28T02:56:09;37.60;;;18.20;;
58661;SDS011;44432;49.786;22.760;2023-02-28T02:58:42;32.60;;;18.60;;
58661;SDS011;44432;49.786;22.760;2023-02-28T03:01:20;33.80;;;18.40;;
58661;SDS011;44432;49.786;22.760;2023-02-28T03:03:57;34.10;;;17.80;;
58661;SDS011;44432;49.786;22.760;2023-02-28T03:06:31;36.50;;;19.70;;
58661;SDS011;44432;49.786;22.760;2023-02-28T03:09:02;37.30;;;18.80;;
58661;SDS011;44432;49.786;22.760;2023-02-28T03:11:33;32.90;;;17.20;;
58661;SDS011;44432;49.786;22.760;2023-02-28T03:17:04;38.70;;;19.80;;
58661;SDS011;44432;49.786;22.760;2023-02-28T03:19:50;39.80;;;20.30;;
58661;SDS011;44432;49.786;22.760;2023-02-28T03:22:27;36.00;;;20.40;;
58661;SDS011;44432;49.786;22.760;2023-02-28T03:25:14;45.70;;;21.20;;
58661;SDS011;44432;49.786;22.760;2023-02-28T03:27:52;47.60;;;22.50;;
58661;SDS011;44432;49.786;22.760;2023-02-28T03:30:32;35.10;;;19.40;;
58661;SDS011;44432;49.786;22.760;2023-02-28T03:33:11;38.30;;;19.20;;
58661;SDS011;44432;49.786;22.760;2023-02-28T03:35:47;35.60;;;19.10;;
58661;SDS011;44432;49.786;22.760;2023-02-28T03:38:22;34.90;;;18.90;;
58661;SDS011;44432;49.786;22.760;2023-02-28T03:41:00;33.90;;;19.60;;
58661;SDS011;44432;49.786;22.760;2023-02-28T03:43:35;37.90;;;20.00;;
58661;SDS011;44432;49.786;22.760;2023-02-28T03:46:12;34.40;;;20.30;;
58661;SDS011;44432;49.786;22.760;2023-02-28T03:48:51;33.80;;;19.50;;
58661;SDS011;44432;49.786;22.760;2023-02-28T03:51:26;34.40;;;19.00;;
58661;SDS011;44432;49.786;22.760;2023-02-28T03:53:59;41.10;;;20.50;;
58661;SDS011;44432;49.786;22.760;2023-02-28T03:56:37;39.30;;;21.70;;
58661;SDS011;44432;49.786;22.760;2023-02-28T03:59:12;40.80;;;21.80;;
58661;SDS011;44432;49.786;22.760;2023-02-28T04:01:49;37.00;;;19.90;;
58661;SDS011;44432;49.786;22.760;2023-02-28T04:04:20;38.30;;;19.50;;
58661;SDS011;44432;49.786;22.760;2023-02-28T04:06:51;32.90;;;18.40;;
58661;SDS011;44432;49.786;22.760;2023-02-28T04:09:29;35.90;;;18.60;;
58661;SDS011;44432;49.786;22.760;2023-02-28T04:12:00;36.60;;;17.90;;
58661;SDS011;44432;49.786;22.760;2023-02-28T04:14:31;33.70;;;17.90;;
58661;SDS011;44432;49.786;22.760;2023-02-28T04:17:01;34.00;;;18.20;;
58661;SDS011;44432;49.786;22.760;2023-02-28T04:19:32;45.50;;;19.30;;
58661;SDS011;44432;49.786;22.760;2023-02-28T04:22:03;35.60;;;18.40;;
58661;SDS011;44432;49.786;22.760;2023-02-28T04:24:34;36.00;;;19.50;;
58661;SDS011;44432;49.786;22.760;2023-02-28T04:27:04;37.70;;;20.20;;
58661;SDS011;44432;49.786;22.760;2023-02-28T04:29:37;39.40;;;21.30;;
58661;SDS011;44432;49.786;22.760;2023-02-28T04:32:07;46.40;;;20.80;;
58661;SDS011;44432;49.786;22.760;2023-02-28T04:34:39;35.40;;;20.50;;
58661;SDS011;44432;49.786;22.760;2023-02-28T04:37:09;34.80;;;19.30;;
58661;SDS011;44432;49.786;22.760;2023-02-28T04:39:40;38.70;;;19.50;;
58661;SDS011;44432;49.786;22.760;2023-02-28T04:42:11;37.70;;;19.00;;
58661;SDS011;44432;49.786;22.760;2023-02-28T04:44:42;38.90;;;19.80;;
58661;SDS011;44432;49.786;22.760;2023-02-28T04:47:12;36.10;;;18.70;;
58661;SDS011;44432;49.786;22.760;2023-02-28T04:49:43;35.30;;;19.60;;
58661;SDS011;44432;49.786;22.760;2023-02-28T04:52:14;39.70;;;20.30;;
58661;SDS011;44432;49.786;22.760;2023-02-28T04:54:44;37.50;;;19.30;;
58661;SDS011;44432;49.786;22.760;2023-02-28T04:57:15;36.40;;;20.00;;
58661;SDS011;44432;49.786;22.760;2023-02-28T04:59:45;35.40;;;18.90;;
58661;SDS011;44432;49.786;22.760;2023-02-28T05:02:17;65.30;;;32.20;;
58661;SDS011;44432;49.786;22.760;2023-02-28T05:04:48;145.10;;;57.10;;
58661;SDS011;44432;49.786;22.760;2023-02-28T05:07:19;104.50;;;49.40;;
58661;SDS011;44432;49.786;22.760;2023-02-28T05:09:50;67.80;;;32.60;;
58661;SDS011;44432;49.786;22.760;2023-02-28T05:12:21;78.10;;;38.70;;
58661;SDS011;44432;49.786;22.760;2023-02-28T05:14:51;43.30;;;23.50;;
58661;SDS011;44432;49.786;22.760;2023-02-28T05:17:22;38.40;;;20.90;;
58661;SDS011;44432;49.786;22.760;2023-02-28T05:19:53;130.70;;;69.40;;
58661;SDS011;44432;49.786;22.760;2023-02-28T05:22:23;86.10;;;43.10;;
58661;SDS011;44432;49.786;22.760;2023-02-28T05:24:54;141.20;;;69.30;;
58661;SDS011;44432;49.786;22.760;2023-02-28T05:27:25;69.40;;;35.30;;
58661;SDS011;44432;49.786;22.760;2023-02-28T05:29:57;47.50;;;25.40;;
58661;SDS011;44432;49.786;22.760;2023-02-28T05:32:31;63.60;;;31.50;;
58661;SDS011;44432;49.786;22.760;2023-02-28T05:35:03;48.60;;;25.20;;
58661;SDS011;44432;49.786;22.760;2023-02-28T05:37:34;39.50;;;21.50;;
58661;SDS011;44432;49.786;22.760;2023-02-28T05:40:06;35.10;;;19.30;;
58661;SDS011;44432;49.786;22.760;2023-02-28T05:42:38;36.30;;;19.00;;
58661;SDS011;44432;49.786;22.760;2023-02-28T05:45:10;42.60;;;21.00;;
58661;SDS011;44432;49.786;22.760;2023-02-28T05:47:41;49.40;;;21.00;;
58661;SDS011;44432;49.786;22.760;2023-02-28T05:50:12;38.50;;;22.10;;
58661;SDS011;44432;49.786;22.760;2023-02-28T05:52:42;38.30;;;20.40;;
58661;SDS011;44432;49.786;22.760;2023-02-28T05:55:13;37.30;;;21.10;;
58661;SDS011;44432;49.786;22.760;2023-02-28T05:57:44;38.10;;;18.00;;
58661;SDS011;44432;49.786;22.760;2023-02-28T06:00:15;44.90;;;20.70;;
58661;SDS011;44432;49.786;22.760;2023-02-28T06:02:46;45.40;;;21.90;;
58661;SDS011;44432;49.786;22.760;2023-02-28T06:05:17;68.50;;;35.30;;
58661;SDS011;44432;49.786;22.760;2023-02-28T06:07:48;41.70;;;23.40;;
58661;SDS011;44432;49.786;22.760;2023-02-28T06:10:18;52.30;;;24.80;;
58661;SDS011;44432;49.786;22.760;2023-02-28T06:12:49;40.70;;;21.70;;
58661;SDS011;44432;49.786;22.760;2023-02-28T06:15:20;42.10;;;22.30;;
58661;SDS011;44432;49.786;22.760;2023-02-28T06:17:50;38.60;;;21.90;;
58661;SDS011;44432;49.786;22.760;2023-02-28T06:20:21;61.20;;;31.40;;
58661;SDS011;44432;49.786;22.760;2023-02-28T06:22:54;41.50;;;22.10;;
58661;SDS011;44432;49.786;22.760;2023-02-28T06:25:26;71.10;;;34.80;;
58661;SDS011;44432;49.786;22.760;2023-02-28T06:27:57;70.40;;;34.20;;
58661;SDS011;44432;49.786;22.760;2023-02-28T06:30:28;72.60;;;35.60;;
58661;SDS011;44432;49.786;22.760;2023-02-28T06:32:59;76.60;;;38.30;;
58661;SDS011;44432;49.786;22.760;2023-02-28T06:35:29;56.10;;;27.80;;
58661;SDS011;44432;49.786;22.760;2023-02-28T06:38:00;45.00;;;26.10;;
58661;SDS011;44432;49.786;22.760;2023-02-28T06:40:31;36.20;;;21.40;;
58661;SDS011;44432;49.786;22.760;2023-02-28T06:43:03;52.30;;;28.10;;
58661;SDS011;44432;49.786;22.760;2023-02-28T06:45:34;68.20;;;36.60;;
58661;SDS011;44432;49.786;22.760;2023-02-28T06:48:05;83.90;;;40.10;;
58661;SDS011;44432;49.786;22.760;2023-02-28T06:50:36;77.70;;;38.90;;
58661;SDS011;44432;49.786;22.760;2023-02-28T06:53:07;69.60;;;35.70;;
58661;SDS011;44432;49.786;22.760;2023-02-28T06:55:38;64.60;;;31.60;;
58661;SDS011;44432;49.786;22.760;2023-02-28T06:58:09;66.80;;;34.60;;
58661;SDS011;44432;49.786;22.760;2023-02-28T07:00:43;69.80;;;39.60;;
58661;SDS011;44432;49.786;22.760;2023-02-28T07:03:14;49.70;;;29.60;;
58661;SDS011;44432;49.786;22.760;2023-02-28T07:05:46;56.40;;;31.70;;
58661;SDS011;44432;49.786;22.760;2023-02-28T07:08:16;51.20;;;30.20;;
58661;SDS011;44432;49.786;22.760;2023-02-28T07:10:47;49.30;;;29.10;;
58661;SDS011;44432;49.786;22.760;2023-02-28T07:13:20;44.60;;;24.80;;
58661;SDS011;44432;49.786;22.760;2023-02-28T07:15:55;32.10;;;18.30;;
58661;SDS011;44432;49.786;22.760;2023-02-28T07:18:27;24.90;;;13.50;;
58661;SDS011;44432;49.786;22.760;2023-02-28T07:20:58;27.50;;;13.70;;
58661;SDS011;44432;49.786;22.760;2023-02-28T07:23:30;23.70;;;13.00;;
58661;SDS011;44432;49.786;22.760;2023-02-28T07:26:00;23.70;;;13.00;;
58661;SDS011;44432;49.786;22.760;2023-02-28T07:28:32;21.70;;;12.50;;
58661;SDS011;44432;49.786;22.760;2023-02-28T07:31:06;24.30;;;12.60;;
58661;SDS011;44432;49.786;22.760;2023-02-28T07:33:37;20.90;;;12.20;;
58661;SDS011;44432;49.786;22.760;2023-02-28T07:36:09;18.40;;;11.20;;
58661;SDS011;44432;49.786;22.760;2023-02-28T07:38:43;22.20;;;11.00;;
58661;SDS011;44432;49.786;22.760;2023-02-28T07:41:15;15.20;;;10.10;;
58661;SDS011;44432;49.786;22.760;2023-02-28T07:43:48;20.10;;;11.40;;
58661;SDS011;44432;49.786;22.760;2023-02-28T07:46:18;17.80;;;11.00;;
58661;SDS011;44432;49.786;22.760;2023-02-28T07:48:49;19.70;;;11.20;;
58661;SDS011;44432;49.786;22.760;2023-02-28T07:51:21;22.50;;;12.90;;
58661;SDS011;44432;49.786;22.760;2023-02-28T07:53:52;21.60;;;11.50;;
58661;SDS011;44432;49.786;22.760;2023-02-28T07:56:31;21.70;;;12.40;;
58661;SDS011;44432;49.786;22.760;2023-02-28T07:59:05;27.00;;;13.30;;
58661;SDS011;44432;49.786;22.760;2023-02-28T08:01:35;19.60;;;11.70;;
58661;SDS011;44432;49.786;22.760;2023-02-28T08:04:06;22.70;;;13.20;;
58661;SDS011;44432;49.786;22.760;2023-02-28T08:06:37;23.20;;;12.50;;
58661;SDS011;44432;49.786;22.760;2023-02-28T08:09:08;20.40;;;12.40;;
58661;SDS011;44432;49.786;22.760;2023-02-28T08:11:39;25.20;;;13.70;;
58661;SDS011;44432;49.786;22.760;2023-02-28T08:14:10;18.80;;;11.20;;
58661;SDS011;44432;49.786;22.760;2023-02-28T08:16:41;20.60;;;12.50;;
58661;SDS011;44432;49.786;22.760;2023-02-28T08:19:12;18.40;;;10.90;;
58661;SDS011;44432;49.786;22.760;2023-02-28T08:21:43;19.30;;;10.60;;
58661;SDS011;44432;49.786;22.760;2023-02-28T08:24:13;20.30;;;12.10;;
58661;SDS011;44432;49.786;22.760;2023-02-28T08:26:44;21.40;;;13.70;;
58661;SDS011;44432;49.786;22.760;2023-02-28T08:29:15;30.40;;;17.90;;
58661;SDS011;44432;49.786;22.760;2023-02-28T08:31:45;28.50;;;15.90;;
58661;SDS011;44432;49.786;22.760;2023-02-28T08:34:16;29.90;;;16.40;;
58661;SDS011;44432;49.786;22.760;2023-02-28T08:36:47;21.60;;;13.00;;
58661;SDS011;44432;49.786;22.760;2023-02-28T08:39:17;65.20;;;30.40;;
58661;SDS011;44432;49.786;22.760;2023-02-28T08:41:48;28.20;;;15.70;;
58661;SDS011;44432;49.786;22.760;2023-02-28T08:44:19;44.10;;;21.30;;
58661;SDS011;44432;49.786;22.760;2023-02-28T08:46:50;29.60;;;15.20;;
58661;SDS011;44432;49.786;22.760;2023-02-28T08:49:20;32.70;;;14.90;;
58661;SDS011;44432;49.786;22.760;2023-02-28T08:51:51;26.70;;;14.20;;
58661;SDS011;44432;49.786;22.760;2023-02-28T08:54:23;17.70;;;10.80;;
58661;SDS011;44432;49.786;22.760;2023-02-28T08:56:53;22.40;;;11.00;;
58661;SDS011;44432;49.786;22.760;2023-02-28T08:59:24;17.90;;;11.10;;
58661;SDS011;44432;49.786;22.760;2023-02-28T09:01:55;15.90;;;9.50;;
58661;SDS011;44432;49.786;22.760;2023-02-28T09:04:26;21.20;;;13.30;;
58661;SDS011;44432;49.786;22.760;2023-02-28T09:06:58;30.10;;;20.10;;
58661;SDS011;44432;49.786;22.760;2023-02-28T09:09:29;18.00;;;11.00;;
58661;SDS011;44432;49.786;22.760;2023-02-28T09:11:59;22.50;;;12.70;;
58661;SDS011;44432;49.786;22.760;2023-02-28T09:14:30;19.60;;;10.90;;
58661;SDS011;44432;49.786;22.760;2023-02-28T09:17:01;16.20;;;9.70;;
58661;SDS011;44432;49.786;22.760;2023-02-28T09:19:32;18.70;;;10.20;;
58661;SDS011;44432;49.786;22.760;2023-02-28T09:22:02;24.60;;;13.50;;
58661;SDS011;44432;49.786;22.760;2023-02-28T09:24:33;20.70;;;12.00;;
58661;SDS011;44432;49.786;22.760;2023-02-28T09:27:04;21.70;;;10.60;;
58661;SDS011;44432;49.786;22.760;2023-02-28T09:29:35;22.70;;;10.10;;
58661;SDS011;44432;49.786;22.760;2023-02-28T09:32:06;18.90;;;9.80;;
58661;SDS011;44432;49.786;22.760;2023-02-28T09:34:36;15.90;;;9.50;;
58661;SDS011;44432;49.786;22.760;2023-02-28T09:37:08;22.80;;;13.30;;
58661;SDS011;44432;49.786;22.760;2023-02-28T09:39:38;21.80;;;10.40;;
58661;SDS011;44432;49.786;22.760;2023-02-28T09:42:12;24.60;;;11.30;;
58661;SDS011;44432;49.786;22.760;2023-02-28T09:44:51;17.20;;;9.70;;
58661;SDS011;44432;49.786;22.760;2023-02-28T09:47:29;15.70;;;9.40;;
58661;SDS011;44432;49.786;22.760;2023-02-28T09:50:06;15.50;;;9.70;;
58661;SDS011;44432;49.786;22.760;2023-02-28T09:52:46;21.70;;;12.20;;
58661;SDS011;44432;49.786;22.760;2023-02-28T09:55:21;27.50;;;11.10;;
58661;SDS011;44432;49.786;22.760;2023-02-28T09:57:57;34.30;;;13.90;;
58661;SDS011;44432;49.786;22.760;2023-02-28T10:00:30;24.50;;;12.50;;
58661;SDS011;44432;49.786;22.760;2023-02-28T10:03:06;24.70;;;11.90;;
58661;SDS011;44432;49.786;22.760;2023-02-28T10:05:51;21.10;;;11.10;;
58661;SDS011;44432;49.786;22.760;2023-02-28T10:08:28;20.90;;;10.60;;
58661;SDS011;44432;49.786;22.760;2023-02-28T10:11:06;20.30;;;11.00;;
58661;SDS011;44432;49.786;22.760;2023-02-28T10:13:44;22.60;;;11.50;;
58661;SDS011;44432;49.786;22.760;2023-02-28T10:16:24;15.80;;;9.40;;
58661;SDS011;44432;49.786;22.760;2023-02-28T10:18:59;17.60;;;9.80;;
58661;SDS011;44432;49.786;22.760;2023-02-28T10:21:35;16.90;;;9.50;;
58661;SDS011;44432;49.786;22.760;2023-02-28T10:24:14;16.90;;;10.20;;
58661;SDS011;44432;49.786;22.760;2023-02-28T10:26:52;18.00;;;7.90;;
58661;SDS011;44432;49.786;22.760;2023-02-28T10:29:27;14.10;;;7.90;;
58661;SDS011;44432;49.786;22.760;2023-02-28T10:34:31;15.80;;;10.20;;
58661;SDS011;44432;49.786;22.760;2023-02-28T10:37:02;11.90;;;7.40;;
58661;SDS011;44432;49.786;22.760;2023-02-28T10:39:37;11.70;;;7.60;;
58661;SDS011;44432;49.786;22.760;2023-02-28T10:42:20;17.80;;;9.60;;
58661;SDS011;44432;49.786;22.760;2023-02-28T10:45:09;14.20;;;9.30;;
58661;SDS011;44432;49.786;22.760;2023-02-28T10:47:51;17.30;;;9.20;;
58661;SDS011;44432;49.786;22.760;2023-02-28T10:50:32;17.30;;;10.10;;
58661;SDS011;44432;49.786;22.760;2023-02-28T10:53:13;19.00;;;8.40;;
58661;SDS011;44432;49.786;22.760;2023-02-28T10:55:57;12.70;;;7.40;;
58661;SDS011;44432;49.786;22.760;2023-02-28T10:58:31;14.80;;;7.50;;
58661;SDS011;44432;49.786;22.760;2023-02-28T11:01:16;13.30;;;7.70;;
58661;SDS011;44432;49.786;22.760;2023-02-28T11:06:19;16.70;;;7.40;;
58661;SDS011;44432;49.786;22.760;2023-02-28T11:08:54;14.80;;;9.30;;
58661;SDS011;44432;49.786;22.760;2023-02-28T11:11:28;17.70;;;9.60;;
58661;SDS011;44432;49.786;22.760;2023-02-28T11:14:17;16.00;;;10.30;;
58661;SDS011;44432;49.786;22.760;2023-02-28T11:16:51;17.60;;;10.40;;
58661;SDS011;44432;49.786;22.760;2023-02-28T11:19:24;15.00;;;9.80;;
58661;SDS011;44432;49.786;22.760;2023-02-28T11:21:58;18.30;;;10.50;;
58661;SDS011;44432;49.786;22.760;2023-02-28T11:24:31;20.60;;;10.10;;
58661;SDS011;44432;49.786;22.760;2023-02-28T11:27:06;16.80;;;9.90;;
58661;SDS011;44432;49.786;22.760;2023-02-28T11:29:53;20.90;;;10.60;;
58661;SDS011;44432;49.786;22.760;2023-02-28T11:32:24;15.70;;;9.10;;
58661;SDS011;44432;49.786;22.760;2023-02-28T11:35:02;30.40;;;18.80;;
58661;SDS011;44432;49.786;22.760;2023-02-28T11:37:42;21.50;;;12.50;;
58661;SDS011;44432;49.786;22.760;2023-02-28T11:40:14;20.00;;;11.80;;
58661;SDS011;44432;49.786;22.760;2023-02-28T11:42:49;21.30;;;10.10;;
58661;SDS011;44432;49.786;22.760;2023-02-28T11:45:38;19.40;;;11.40;;
58661;SDS011;44432;49.786;22.760;2023-02-28T11:48:20;19.20;;;10.20;;
58661;SDS011;44432;49.786;22.760;2023-02-28T11:51:00;17.20;;;9.90;;
58661;SDS011;44432;49.786;22.760;2023-02-28T11:56:41;20.00;;;9.30;;
58661;SDS011;44432;49.786;22.760;2023-02-28T11:59:24;22.90;;;12.30;;
58661;SDS011;44432;49.786;22.760;2023-02-28T12:02:06;15.20;;;8.50;;
58661;SDS011;44432;49.786;22.760;2023-02-28T12:04:53;17.20;;;8.50;;
58661;SDS011;44432;49.786;22.760;2023-02-28T12:07:37;19.70;;;9.50;;
58661;SDS011;44432;49.786;22.760;2023-02-28T12:10:20;24.90;;;11.10;;
58661;SDS011;44432;49.786;22.760;2023-02-28T12:12:56;17.40;;;9.20;;
58661;SDS011;44432;49.786;22.760;2023-02-28T12:18:56;19.10;;;10.30;;
58661;SDS011;44432;49.786;22.760;2023-02-28T12:21:40;18.00;;;10.40;;
58661;SDS011;44432;49.786;22.760;2023-02-28T12:24:37;19.10;;;10.90;;
58661;SDS011;44432;49.786;22.760;2023-02-28T12:27:17;18.60;;;11.30;;
58661;SDS011;44432;49.786;22.760;2023-02-28T12:29:52;36.30;;;24.10;;
58661;SDS011;44432;49.786;22.760;2023-02-28T12:32:27;21.40;;;11.40;;
58661;SDS011;44432;49.786;22.760;2023-02-28T12:35:03;18.40;;;10.40;;
58661;SDS011;44432;49.786;22.760;2023-02-28T12:37:42;20.20;;;11.00;;
58661;SDS011;44432;49.786;22.760;2023-02-28T12:40:19;20.00;;;11.90;;
58661;SDS011;44432;49.786;22.760;2023-02-28T12:42:52;18.60;;;10.70;;
58661;SDS011;44432;49.786;22.760;2023-02-28T12:45:27;21.90;;;12.70;;
58661;SDS011;44432;49.786;22.760;2023-02-28T12:48:09;62.20;;;30.40;;
58661;SDS011;44432;49.786;22.760;2023-02-28T12:50:44;18.00;;;11.10;;
58661;SDS011;44432;49.786;22.760;2023-02-28T12:53:17;19.80;;;10.60;;
58661;SDS011;44432;49.786;22.760;2023-02-28T12:56:02;19.10;;;11.10;;
58661;SDS011;44432;49.786;22.760;2023-02-28T12:58:46;18.30;;;10.70;;
58661;SDS011;44432;49.786;22.760;2023-02-28T13:01:26;16.20;;;9.60;;
58661;SDS011;44432;49.786;22.760;2023-02-28T13:09:52;18.90;;;10.50;;
58661;SDS011;44432;49.786;22.760;2023-02-28T13:12:25;19.00;;;10.20;;
58661;SDS011;44432;49.786;22.760;2023-02-28T13:15:04;14.80;;;9.10;;
58661;SDS011;44432;49.786;22.760;2023-02-28T13:17:40;21.40;;;10.70;;
58661;SDS011;44432;49.786;22.760;2023-02-28T13:20:17;16.10;;;10.40;;
58661;SDS011;44432;49.786;22.760;2023-02-28T13:22:51;16.20;;;10.10;;
58661;SDS011;44432;49.786;22.760;2023-02-28T13:34:46;20.90;;;10.70;;
58661;SDS011;44432;49.786;22.760;2023-02-28T13:37:43;18.90;;;11.00;;
58661;SDS011;44432;49.786;22.760;2023-02-28T13:40:33;20.10;;;11.50;;
58661;SDS011;44432;49.786;22.760;2023-02-28T13:43:08;28.90;;;12.60;;
58661;SDS011;44432;49.786;22.760;2023-02-28T13:45:39;20.40;;;11.80;;
58661;SDS011;44432;49.786;22.760;2023-02-28T13:48:41;21.20;;;12.50;;
58661;SDS011;44432;49.786;22.760;2023-02-28T13:54:18;20.80;;;11.70;;
58661;SDS011;44432;49.786;22.760;2023-02-28T13:57:10;17.50;;;11.20;;
58661;SDS011;44432;49.786;22.760;2023-02-28T13:59:53;19.40;;;12.00;;
58661;SDS011;44432;49.786;22.760;2023-02-28T14:02:41;19.10;;;11.60;;
58661;SDS011;44432;49.786;22.760;2023-02-28T14:05:21;17.50;;;11.70;;
58661;SDS011;44432;49.786;22.760;2023-02-28T14:07:55;19.00;;;11.30;;
58661;SDS011;44432;49.786;22.760;2023-02-28T14:10:35;44.80;;;12.00;;
58661;SDS011;44432;49.786;22.760;2023-02-28T14:13:14;17.90;;;9.90;;
58661;SDS011;44432;49.786;22.760;2023-02-28T14:16:12;19.80;;;12.00;;
58661;SDS011;44432;49.786;22.760;2023-02-28T14:18:49;29.40;;;15.50;;
58661;SDS011;44432;49.786;22.760;2023-02-28T14:21:25;21.80;;;12.80;;
58661;SDS011;44432;49.786;22.760;2023-02-28T14:33:30;18.70;;;11.30;;
58661;SDS011;44432;49.786;22.760;2023-02-28T14:36:12;20.60;;;12.40;;
58661;SDS011;44432;49.786;22.760;2023-02-28T14:38:49;29.10;;;16.60;;
58661;SDS011;44432;49.786;22.760;2023-02-28T14:41:23;26.10;;;14.90;;
58661;SDS011;44432;49.786;22.760;2023-02-28T14:43:58;23.80;;;12.80;;
58661;SDS011;44432;49.786;22.760;2023-02-28T14:46:34;19.00;;;11.90;;
58661;SDS011;44432;49.786;22.760;2023-02-28T14:49:12;24.50;;;11.80;;
58661;SDS011;44432;49.786;22.760;2023-02-28T14:51:45;20.90;;;12.30;;
58661;SDS011;44432;49.786;22.760;2023-02-28T14:54:17;22.50;;;13.00;;
58661;SDS011;44432;49.786;22.760;2023-02-28T14:56:52;25.20;;;13.10;;
58661;SDS011;44432;49.786;22.760;2023-02-28T14:59:27;20.10;;;11.90;;
58661;SDS011;44432;49.786;22.760;2023-02-28T15:02:19;26.40;;;15.30;;
58661;SDS011;44432;49.786;22.760;2023-02-28T15:04:55;22.20;;;13.10;;
58661;SDS011;44432;49.786;22.760;2023-02-28T15:07:27;26.10;;;13.70;;
58661;SDS011;44432;49.786;22.760;2023-02-28T15:10:08;23.40;;;12.60;;
58661;SDS011;44432;49.786;22.760;2023-02-28T15:12:40;18.70;;;11.30;;
58661;SDS011;44432;49.786;22.760;2023-02-28T15:15:17;18.70;;;11.30;;
58661;SDS011;44432;49.786;22.760;2023-02-28T15:17:51;21.70;;;11.60;;
58661;SDS011;44432;49.786;22.760;2023-02-28T15:20:24;25.50;;;13.50;;
58661;SDS011;44432;49.786;22.760;2023-02-28T15:22:56;27.90;;;16.60;;
58661;SDS011;44432;49.786;22.760;2023-02-28T15:25:28;26.60;;;13.50;;
58661;SDS011;44432;49.786;22.760;2023-02-28T15:27:59;23.70;;;14.30;;
58661;SDS011;44432;49.786;22.760;2023-02-28T15:30:30;23.10;;;13.80;;
58661;SDS011;44432;49.786;22.760;2023-02-28T15:33:06;22.90;;;13.80;;
58661;SDS011;44432;49.786;22.760;2023-02-28T15:35:47;22.80;;;12.10;;
58661;SDS011;44432;49.786;22.760;2023-02-28T15:38:21;25.10;;;14.40;;
58661;SDS011;44432;49.786;22.760;2023-02-28T15:40:54;23.10;;;14.00;;
58661;SDS011;44432;49.786;22.760;2023-02-28T15:43:27;25.80;;;15.00;;